Vremea acum in Lipova - Romania

Vrei sa afli care e starea vremii acum in Arad - Romania? Dorim sa iti furnizam starea vremii pentru Arad - Romania. Starea vremii Arad - Romania pentru astazi.

Vremea acum in Lipova

Temperatura: -1 °C

Se simte ca: -3.5 °C
Innorat: 0 %
Precipitatii: 0 %
Presiune atmosferica: 1010 hPa
Umiditate: 100%
Vizibilitate: 10 km
Vantul bate din W cu 6.8 km/h

Evolutia vremii in Lipova pe ore

Ora: 09:00
Parțial noros
Temperatura: 0.5°C
Sansa de precipitatii: 0%
Ora Descriere Temp Se simte Precipitatii Umiditate Vant
00:00Parțial noros0.4°-5°5%80%NW 22 KM/H
01:00Parțial noros0.3°-5.1°10%79%NW 21.6 KM/H
02:00Parțial noros0.1°-5.3°14%78%NW 21.6 KM/H
03:00Ninsori moderate pe alocuri0.1°-5.3°26%78%NW 21.6 KM/H
04:00Parțial noros0.1°-5.3°53%77%NW 21.2 KM/H
05:00Ninsori moderate pe alocuri0.1°-5.3°79%77%NW 21.2 KM/H
06:00Parțial noros-0.1°-5.2°53%78%NW 19.1 KM/H
07:00Ninsori moderate pe alocuri-0.4°-5.2°26%79%NW 16.9 KM/H
08:00Parțial noros-0.6°-5.1°0%80%NW 14.8 KM/H
09:00Parțial noros0.5°-4.1°0%77%NW 17.6 KM/H
10:00Parțial noros1.7°-3.1°0%73%NW 20.2 KM/H
11:00Parțial noros2.8°-2.1°0%70%NW 23 KM/H
12:00Parțial noros3.4°-1°0%67%NW 20.9 KM/H
13:00Parțial noros4.1°0.1°0%64%NW 18.4 KM/H
14:00Parțial noros4.7°1.2°0%61%NW 16.2 KM/H
15:00Parțial noros0.7°0%65%W 14 KM/H
16:00Parțial noros3.3°0.3°0%68%WSW 12.2 KM/H
17:00Parțial noros2.6°-0.2°0%71%SW 10.1 KM/H
18:00Noros2.4°-0.8°0%72%SSW 12.2 KM/H
19:00Parțial noros2.3°-1.4°0%73%S 14 KM/H
20:00Noros2.1°-2°0%73%S 16.2 KM/H
21:00Parțial noros1.9°-2.6°0%73%S 18.4 KM/H
22:00Noros1.6°-3.2°0%72%S 20.5 KM/H
23:00Parțial noros1.4°-3.8°0%72%S 22.7 KM/H